createdAt,value
2019-02-15T00:01:00.912Z,102206.14
2019-02-15T00:03:28.313Z,102204.44
2019-02-15T00:05:55.771Z,102205.76
2019-02-15T00:08:23.166Z,102205.76
2019-02-15T00:10:50.585Z,102204.91
2019-02-15T00:13:17.980Z,102208.88
2019-02-15T00:15:45.433Z,102206.37
2019-02-15T00:18:41.731Z,102194.34
2019-02-15T00:21:20.445Z,102209.87
2019-02-15T00:23:47.898Z,102193.45
2019-02-15T00:26:16.646Z,102199.03
2019-02-15T00:28:44.489Z,102196.92
2019-02-15T00:31:14.972Z,102191.75
2019-02-15T00:33:42.458Z,102188.31
2019-02-15T00:36:10.002Z,102187.87
2019-02-15T00:38:37.403Z,102197.00
2019-02-15T00:41:05.103Z,102204.31
2019-02-15T00:43:39.994Z,102199.61
2019-02-15T00:46:32.342Z,102200.95
2019-02-15T00:49:03.100Z,102203.08
2019-02-15T00:52:01.695Z,102204.40
2019-02-15T00:54:57.889Z,102208.28
2019-02-15T00:57:44.961Z,102205.22
2019-02-15T01:00:42.280Z,102207.86
2019-02-15T01:03:42.074Z,102206.59
2019-02-15T01:06:29.152Z,102211.35
2019-02-15T01:09:24.803Z,102210.94
2019-02-15T01:12:23.111Z,102208.44
2019-02-15T01:14:59.668Z,102201.45
2019-02-15T01:17:30.929Z,102199.72
2019-02-15T01:20:06.502Z,102203.59
2019-02-15T01:22:50.957Z,102198.03
2019-02-15T01:25:28.619Z,102201.12
2019-02-15T01:28:06.749Z,102200.76
2019-02-15T01:30:57.522Z,102191.73
2019-02-15T01:33:49.399Z,102190.79
2019-02-15T01:36:48.379Z,102189.06
2019-02-15T01:40:00.805Z,102182.59
2019-02-15T01:43:04.009Z,102187.80
2019-02-15T01:45:59.829Z,102191.18
2019-02-15T01:48:25.400Z,102187.33
2019-02-15T01:50:59.512Z,102185.94
2019-02-15T01:53:35.253Z,102182.42
2019-02-15T01:56:13.064Z,102190.56
2019-02-15T01:58:52.073Z,102185.04
2019-02-15T02:01:28.899Z,102181.52
2019-02-15T02:04:01.034Z,102182.42
2019-02-15T02:06:41.820Z,102172.60
2019-02-15T02:09:21.587Z,102177.92
2019-02-15T02:11:53.534Z,102177.11
2019-02-15T02:14:25.575Z,102188.81
2019-02-15T02:17:03.975Z,102176.33
2019-02-15T02:19:40.425Z,102174.95
2019-02-15T02:22:15.561Z,102164.99
2019-02-15T02:24:49.485Z,102160.23
2019-02-15T02:27:28.286Z,102157.66
2019-02-15T02:29:58.746Z,102155.47
2019-02-15T02:32:36.669Z,102151.59
2019-02-15T02:35:19.155Z,102152.88
2019-02-15T02:38:03.084Z,102146.09
2019-02-15T02:40:37.772Z,102143.59
2019-02-15T02:43:07.448Z,102142.25
2019-02-15T02:45:34.917Z,102142.33
2019-02-15T02:48:02.341Z,102137.52
2019-02-15T02:50:29.751Z,102145.30
2019-02-15T02:53:01.573Z,102146.19
2019-02-15T02:55:35.963Z,102143.56
2019-02-15T02:58:08.095Z,102144.95
2019-02-15T03:00:40.833Z,102141.50
2019-02-15T03:03:11.351Z,102137.70
2019-02-15T03:05:47.324Z,102140.21
2019-02-15T03:08:24.340Z,102137.65
2019-02-15T03:10:53.369Z,102143.62
2019-02-15T03:13:20.936Z,102141.02
2019-02-15T03:15:48.431Z,102140.13
2019-02-15T03:18:15.912Z,102135.87
2019-02-15T03:20:43.314Z,102134.16
2019-02-15T03:23:10.812Z,102135.06
2019-02-15T03:25:38.200Z,102132.48
2019-02-15T03:28:05.656Z,102135.02
2019-02-15T03:30:33.105Z,102133.78
2019-02-15T03:33:00.599Z,102135.49
2019-02-15T03:35:28.016Z,102132.03
2019-02-15T03:38:13.499Z,102135.91
2019-02-15T03:40:44.013Z,102133.76
2019-02-15T03:43:11.545Z,102140.09
2019-02-15T03:45:38.907Z,102138.48
2019-02-15T03:48:06.332Z,102145.34
2019-02-15T03:50:33.731Z,102142.36
2019-02-15T03:53:01.233Z,102145.70
2019-02-15T03:55:28.753Z,102139.21
2019-02-15T03:57:56.225Z,102140.98
2019-02-15T04:00:23.630Z,102131.55
2019-02-15T04:02:51.091Z,102133.30
2019-02-15T04:05:18.574Z,102126.08
2019-02-15T04:07:46.071Z,102132.09
2019-02-15T04:10:13.450Z,102132.94
2019-02-15T04:12:40.944Z,102131.72
2019-02-15T04:15:08.531Z,102124.38
2019-02-15T04:17:36.062Z,102123.07
2019-02-15T04:20:04.381Z,102131.16
2019-02-15T04:22:31.815Z,102126.84
2019-02-15T04:24:59.221Z,102123.48
2019-02-15T04:27:26.801Z,102123.95
2019-02-15T04:29:55.348Z,102120.84
2019-02-15T04:32:22.985Z,102125.05
2019-02-15T04:34:51.985Z,102125.37
2019-02-15T04:37:19.668Z,102126.97
2019-02-15T04:39:47.246Z,102125.02
2019-02-15T04:42:19.209Z,102125.46
2019-02-15T04:44:53.595Z,102123.28
2019-02-15T04:47:26.021Z,102116.89
2019-02-15T04:50:00.780Z,102117.86
2019-02-15T04:52:28.181Z,102121.23
2019-02-15T04:54:55.625Z,102118.59
2019-02-15T04:57:23.020Z,102122.56
2019-02-15T04:59:50.500Z,102119.94
2019-02-15T05:02:17.930Z,102122.03
2019-02-15T05:04:45.391Z,102123.28
2019-02-15T05:07:12.812Z,102121.48
2019-02-15T05:09:40.350Z,102119.27
2019-02-15T05:12:07.780Z,102122.75
2019-02-15T05:14:35.215Z,102118.86
2019-02-15T05:17:02.767Z,102121.80
2019-02-15T05:19:30.195Z,102122.78
2019-02-15T05:21:57.610Z,102120.27
2019-02-15T05:24:27.571Z,102118.11
2019-02-15T05:26:55.050Z,102113.84
2019-02-15T05:29:22.485Z,102115.59
2019-02-15T05:31:50.252Z,102119.09
2019-02-15T05:34:17.782Z,102119.39
2019-02-15T05:36:45.258Z,102118.48
2019-02-15T05:39:12.705Z,102109.78
2019-02-15T05:41:40.105Z,102112.39
2019-02-15T05:44:07.558Z,102109.89
2019-02-15T05:46:34.935Z,102110.33
2019-02-15T05:49:02.395Z,102118.39
2019-02-15T05:51:29.800Z,102116.66
2019-02-15T05:53:57.680Z,102116.70
2019-02-15T05:56:25.066Z,102122.64
2019-02-15T05:58:52.515Z,102111.98
2019-02-15T06:01:20.954Z,102119.52
2019-02-15T06:03:48.409Z,102114.39
2019-02-15T06:06:15.841Z,102122.63
2019-02-15T06:08:43.235Z,102121.74
2019-02-15T06:11:10.722Z,102120.06
2019-02-15T06:13:38.135Z,102120.50
2019-02-15T06:16:05.641Z,102125.68
2019-02-15T06:18:33.115Z,102128.27
2019-02-15T06:21:00.546Z,102129.58
2019-02-15T06:23:27.941Z,102130.00
2019-02-15T06:25:55.491Z,102128.27
2019-02-15T06:28:22.864Z,102129.09
2019-02-15T06:30:50.351Z,102132.09
2019-02-15T06:33:17.750Z,102129.41
2019-02-15T06:35:45.286Z,102133.19
2019-02-15T06:38:12.867Z,102126.55
2019-02-15T06:40:40.401Z,102126.52
2019-02-15T06:43:07.785Z,102135.54
2019-02-15T06:45:35.209Z,102134.25
2019-02-15T06:48:02.610Z,102132.52
2019-02-15T06:50:30.052Z,102135.07
2019-02-15T06:52:57.552Z,102134.77
2019-02-15T06:55:25.070Z,102143.45
2019-02-15T06:57:52.466Z,102143.03
2019-02-15T07:00:43.285Z,102141.00
2019-02-15T07:03:24.411Z,102137.67
2019-02-15T07:05:51.825Z,102125.84
2019-02-15T07:08:19.272Z,102118.20
2019-02-15T07:10:46.760Z,102118.20
2019-02-15T07:13:14.229Z,102113.19
2019-02-15T07:15:41.755Z,102112.00
2019-02-15T07:18:09.176Z,102106.02
2019-02-15T07:20:36.682Z,102104.76
2019-02-15T07:23:04.165Z,102098.84
2019-02-15T07:25:31.605Z,102092.64
2019-02-15T07:27:59.400Z,102090.23
2019-02-15T07:30:26.870Z,102083.17
2019-02-15T07:32:54.285Z,102080.02
2019-02-15T07:35:21.780Z,102074.13
2019-02-15T07:37:49.271Z,102077.90
2019-02-15T07:40:16.751Z,102075.25
2019-02-15T07:42:44.170Z,102060.87
2019-02-15T07:45:45.585Z,102052.71
2019-02-15T07:49:11.340Z,102049.09
2019-02-15T07:52:01.956Z,102044.94
2019-02-15T07:54:50.283Z,102053.26
2019-02-15T07:57:17.865Z,102035.57
2019-02-15T07:59:45.341Z,102067.90
2019-02-15T08:02:12.810Z,102077.81
2019-02-15T08:05:31.958Z,102066.72
2019-02-15T08:08:00.435Z,102061.18
2019-02-15T08:14:48.275Z,102034.02
2019-02-15T08:17:15.875Z,102025.34
2019-02-15T08:19:43.583Z,102057.14
2019-02-15T08:29:46.538Z,102059.70
2019-02-15T08:32:44.360Z,102086.11
2019-02-15T08:39:04.761Z,102108.38
2019-02-15T08:45:17.302Z,102119.16
2019-02-15T08:48:06.098Z,102118.90
2019-02-15T08:54:23.365Z,102126.47
2019-02-15T09:00:19.167Z,102113.94
2019-02-15T09:07:03.718Z,102106.32
2019-02-15T09:10:21.533Z,102099.55
2019-02-15T09:13:35.302Z,102107.02
2019-02-15T09:20:18.875Z,102105.61
2019-02-15T09:23:12.407Z,102084.11
2019-02-15T09:26:18.405Z,102087.97
2019-02-15T09:29:29.719Z,102090.44
2019-02-15T09:32:13.417Z,102089.84
2019-02-15T09:35:05.120Z,102093.32
2019-02-15T09:37:50.156Z,102092.78
2019-02-15T09:41:03.142Z,102085.92
2019-02-15T09:43:53.570Z,102079.08
2019-02-15T09:47:09.185Z,102082.08
2019-02-15T09:49:48.465Z,102074.93
2019-02-15T09:55:03.580Z,102079.41
2019-02-15T09:57:36.283Z,102075.80
2019-02-15T10:00:04.474Z,102085.05
2019-02-15T10:02:32.178Z,102070.81
2019-02-15T10:04:59.799Z,102075.55
2019-02-15T10:07:27.700Z,102070.53
2019-02-15T10:09:55.609Z,102072.48
2019-02-15T10:12:23.265Z,102059.17
2019-02-15T10:14:50.815Z,102057.66
2019-02-15T10:17:18.425Z,102058.98
2019-02-15T10:19:45.870Z,102066.20
2019-02-15T10:22:13.335Z,102067.85
2019-02-15T10:24:40.762Z,102054.43
2019-02-15T10:27:08.235Z,102052.25
2019-02-15T10:29:35.850Z,102051.06
2019-02-15T10:32:03.487Z,102039.36
2019-02-15T10:34:31.184Z,102054.03
2019-02-15T10:36:58.656Z,102043.47
2019-02-15T10:39:26.753Z,102043.13
2019-02-15T10:41:57.438Z,102040.23
2019-02-15T10:44:26.259Z,102043.81
2019-02-15T10:46:54.008Z,102034.34
2019-02-15T10:49:21.506Z,102029.05
2019-02-15T10:51:49.028Z,102028.23
2019-02-15T10:54:21.179Z,102024.14
2019-02-15T10:56:48.682Z,102018.24
2019-02-15T10:59:16.161Z,102027.59
2019-02-15T11:01:43.670Z,102028.84
2019-02-15T11:04:11.345Z,102024.75
2019-02-15T11:06:38.949Z,102005.79
2019-02-15T11:09:10.190Z,102003.47
2019-02-15T11:11:38.176Z,102001.22
2019-02-15T11:14:06.193Z,101994.20
2019-02-15T11:16:33.748Z,101995.23
2019-02-15T11:19:01.395Z,101997.72
2019-02-15T11:21:33.403Z,101990.74
2019-02-15T11:24:06.877Z,101991.70
2019-02-15T11:26:34.444Z,101985.64
2019-02-15T11:29:02.130Z,101972.27
2019-02-15T11:31:29.955Z,101967.67
2019-02-15T11:33:57.501Z,101966.05
2019-02-15T11:36:27.240Z,101959.30
2019-02-15T11:38:54.934Z,101961.92
2019-02-15T11:41:23.814Z,101954.81
2019-02-15T11:43:51.410Z,101952.85
2019-02-15T11:46:18.916Z,101942.14
2019-02-15T11:48:46.324Z,101947.70
2019-02-15T11:51:13.825Z,101946.23
2019-02-15T11:53:41.282Z,101951.72
2019-02-15T11:56:09.955Z,101944.22
2019-02-15T11:58:37.541Z,101943.34
2019-02-15T12:01:06.727Z,101934.38
2019-02-15T12:03:34.281Z,101938.36
2019-02-15T12:06:03.804Z,101936.37
2019-02-15T12:08:33.131Z,101938.64
2019-02-15T12:11:01.060Z,101937.98
2019-02-15T12:13:28.577Z,101929.70
2019-02-15T12:15:56.488Z,101934.41
2019-02-15T12:18:24.147Z,101928.31
2019-02-15T12:20:51.630Z,101917.97
2019-02-15T12:23:19.151Z,101927.18
2019-02-15T12:25:49.656Z,101909.67
2019-02-15T12:29:04.469Z,101915.32
2019-02-15T12:31:39.306Z,101909.57
2019-02-15T12:34:11.619Z,101905.91
2019-02-15T12:37:28.457Z,101906.67
2019-02-15T12:41:04.685Z,101893.45
2019-02-15T12:43:37.909Z,101894.28
2019-02-15T12:46:05.468Z,101897.28
2019-02-15T12:49:00.689Z,101898.11
2019-02-15T12:55:38.768Z,101886.98
2019-02-15T12:58:09.705Z,101881.45
2019-02-15T13:01:21.606Z,101863.11
2019-02-15T13:03:49.410Z,101859.70
2019-02-15T13:06:17.204Z,101859.11
2019-02-15T13:08:44.748Z,101856.41
2019-02-15T13:11:32.334Z,101848.49
2019-02-15T13:13:59.936Z,101856.23
2019-02-15T13:16:28.165Z,101838.19
2019-02-15T13:18:57.033Z,101832.30
2019-02-15T13:21:25.649Z,101836.75
2019-02-15T13:23:53.155Z,101833.11
2019-02-15T13:26:23.802Z,101823.23
2019-02-15T13:28:58.356Z,101826.63
2019-02-15T13:31:31.455Z,101821.34
2019-02-15T13:34:10.655Z,101818.71
2019-02-15T13:36:40.990Z,101816.58
2019-02-15T13:39:09.924Z,101808.74
2019-02-15T13:41:43.587Z,101812.91
2019-02-15T13:44:11.460Z,101798.16
2019-02-15T13:46:39.001Z,101794.70
2019-02-15T13:49:06.615Z,101799.16
2019-02-15T13:51:34.349Z,101799.42
2019-02-15T13:54:02.343Z,101788.49
2019-02-15T13:56:29.770Z,101778.56
2019-02-15T13:58:57.255Z,101775.79
2019-02-15T14:01:24.767Z,101774.89
2019-02-15T14:04:11.894Z,101773.43
2019-02-15T14:06:39.556Z,101766.53
2019-02-15T14:09:14.365Z,101769.11
2019-02-15T14:11:41.966Z,101766.72
2019-02-15T14:14:09.440Z,101756.98
2019-02-15T14:17:13.380Z,101755.11
2019-02-15T14:19:42.801Z,101760.23
2019-02-15T14:22:10.288Z,101756.78
2019-02-15T14:24:37.785Z,101761.00
2019-02-15T14:27:05.275Z,101755.95
2019-02-15T14:29:32.744Z,101751.72
2019-02-15T14:32:00.179Z,101750.94
2019-02-15T14:34:27.600Z,101733.43
2019-02-15T14:36:55.460Z,101735.19
2019-02-15T14:39:22.921Z,101742.79
2019-02-15T14:41:50.406Z,101731.98
2019-02-15T14:44:17.815Z,101717.89
2019-02-15T14:46:45.315Z,101709.23
2019-02-15T14:49:12.766Z,101718.24
2019-02-15T14:51:40.221Z,101720.41
2019-02-15T14:54:07.710Z,101714.27
2019-02-15T14:56:35.300Z,101708.63
2019-02-15T14:59:02.731Z,101697.55
2019-02-15T15:01:30.171Z,101698.91
2019-02-15T15:03:57.586Z,101694.92
2019-02-15T15:06:25.061Z,101701.05
2019-02-15T15:08:52.582Z,101702.86
2019-02-15T15:11:20.276Z,101706.06
2019-02-15T15:13:47.670Z,101694.41
2019-02-15T15:16:15.175Z,101693.89
2019-02-15T15:18:42.600Z,101690.89
2019-02-15T15:21:47.240Z,101687.01
2019-02-15T15:28:46.889Z,101674.75
2019-02-15T15:31:12.886Z,101680.73
2019-02-15T15:33:49.044Z,101676.28
2019-02-15T15:36:18.275Z,101663.27
2019-02-15T15:38:45.852Z,101673.23
2019-02-15T15:41:41.355Z,101664.97
2019-02-15T15:44:08.866Z,101660.45
2019-02-15T15:47:21.408Z,101666.16
2019-02-15T15:50:10.341Z,101669.55
2019-02-15T15:52:37.826Z,101667.26
2019-02-15T15:56:16.239Z,101663.36
2019-02-15T15:58:41.666Z,101660.05
2019-02-15T16:02:05.170Z,101668.34
2019-02-15T16:04:32.846Z,101667.44
2019-02-15T16:07:00.371Z,101666.25
2019-02-15T16:09:27.883Z,101671.55
2019-02-15T16:11:55.533Z,101665.39
2019-02-15T16:15:15.023Z,101669.62
2019-02-15T16:17:30.267Z,101666.63
2019-02-15T16:19:57.851Z,101672.95
2019-02-15T16:22:26.049Z,101669.85
2019-02-15T16:24:53.985Z,101667.61
2019-02-15T16:27:21.476Z,101665.31
2019-02-15T16:29:49.295Z,101668.07
2019-02-15T16:32:16.920Z,101668.02
2019-02-15T16:34:44.645Z,101674.28
2019-02-15T16:37:12.313Z,101669.06
2019-02-15T16:39:39.911Z,101665.31
2019-02-15T16:42:07.480Z,101666.39
2019-02-15T16:44:34.930Z,101664.01
2019-02-15T16:47:02.641Z,101666.09
2019-02-15T16:49:30.330Z,101666.45
2019-02-15T16:51:57.987Z,101669.52
2019-02-15T16:54:25.734Z,101663.69
2019-02-15T16:56:53.387Z,101656.04
2019-02-15T16:59:21.143Z,101671.30
2019-02-15T17:01:48.843Z,101671.33
2019-02-15T17:04:16.403Z,101667.86
2019-02-15T17:06:44.235Z,101666.67
2019-02-15T17:09:18.021Z,101674.95
2019-02-15T17:11:45.789Z,101672.30
2019-02-15T17:14:13.685Z,101680.49
2019-02-15T17:16:41.435Z,101675.41
2019-02-15T17:19:09.165Z,101677.47
2019-02-15T17:21:36.816Z,101676.08
2019-02-15T17:24:04.735Z,101674.84
2019-02-15T17:26:32.610Z,101676.24
2019-02-15T17:29:00.380Z,101674.36
2019-02-15T17:31:28.165Z,101674.73
2019-02-15T17:33:56.120Z,101671.39
2019-02-15T17:36:23.929Z,101673.19
2019-02-15T17:38:51.636Z,101672.42
2019-02-15T17:41:19.573Z,101670.63
2019-02-15T17:43:47.388Z,101666.95
2019-02-15T17:46:15.181Z,101659.64
2019-02-15T17:48:42.883Z,101668.23
2019-02-15T17:51:10.461Z,101655.30
2019-02-15T17:53:38.265Z,101644.55
2019-02-15T17:56:05.970Z,101637.95
2019-02-15T17:58:33.883Z,101636.41
2019-02-15T18:01:08.195Z,101623.73
2019-02-15T18:03:43.744Z,101622.14
2019-02-15T18:06:19.797Z,101620.67
2019-02-15T18:08:55.479Z,101608.79
2019-02-15T18:11:27.715Z,101597.38
2019-02-15T18:13:55.406Z,101607.66
2019-02-15T18:16:23.309Z,101602.39
2019-02-15T18:19:10.126Z,101604.83
2019-02-15T18:21:39.681Z,101605.19
2019-02-15T18:24:07.550Z,101590.68
2019-02-15T18:26:35.296Z,101586.37
2019-02-15T18:29:09.389Z,101593.94
2019-02-15T18:31:41.514Z,101583.98
2019-02-15T18:35:35.919Z,101577.12
2019-02-15T18:38:03.851Z,101592.13
2019-02-15T18:40:50.971Z,101592.97
2019-02-15T18:43:19.170Z,101594.91
2019-02-15T18:45:47.054Z,101600.88
2019-02-15T18:48:15.012Z,101589.80
2019-02-15T18:50:55.541Z,101585.02
2019-02-15T18:57:31.395Z,101573.19
2019-02-15T19:00:16.915Z,101553.71
2019-02-15T19:02:52.900Z,101549.03
2019-02-15T19:05:32.920Z,101534.84
2019-02-15T19:08:22.270Z,101546.41
2019-02-15T19:27:56.109Z,101532.86
2019-02-15T19:31:18.397Z,101527.14
2019-02-15T19:47:52.530Z,101511.08
2019-02-15T19:50:26.803Z,101508.61
2019-02-15T19:53:34.965Z,101493.84
2019-02-15T19:56:09.739Z,101503.84
2019-02-15T19:59:01.980Z,101489.70
2019-02-15T20:01:44.057Z,101486.80
2019-02-15T20:04:19.410Z,101474.59
2019-02-15T20:07:11.054Z,101472.50
2019-02-15T20:09:53.006Z,101471.97
2019-02-15T20:12:32.224Z,101470.34
2019-02-15T20:15:23.000Z,101469.53
2019-02-15T20:18:08.966Z,101471.09
2019-02-15T20:20:50.992Z,101482.11
2019-02-15T20:23:26.322Z,101477.20
2019-02-15T20:26:07.246Z,101458.31
2019-02-15T20:29:08.269Z,101472.05
2019-02-15T20:31:36.235Z,101484.82
2019-02-15T20:34:04.295Z,101475.07
2019-02-15T20:36:32.175Z,101479.73
2019-02-15T20:39:00.145Z,101479.75
2019-02-15T20:57:15.720Z,101503.32
2019-02-15T23:17:58.887Z,101483.55
2019-02-15T23:20:26.305Z,101468.79
2019-02-15T23:22:53.758Z,101485.05
2019-02-15T23:25:21.251Z,101487.64
2019-02-15T23:27:58.566Z,101512.96
2019-02-15T23:30:39.575Z,101511.77
2019-02-15T23:33:12.245Z,101513.62
2019-02-15T23:35:45.235Z,101512.75
2019-02-15T23:38:25.909Z,101503.34
2019-02-15T23:41:02.395Z,101502.64
2019-02-15T23:43:36.368Z,101499.10
2019-02-15T23:46:11.304Z,101495.24
2019-02-15T23:48:39.235Z,101489.77
2019-02-15T23:51:07.605Z,101500.20
2019-02-15T23:53:35.099Z,101487.37
2019-02-15T23:56:02.580Z,101495.27
2019-02-15T23:58:30.001Z,101492.70
